Time;durP1;ratioP1;P1;durP2;ratioP2;P2;SDS_P1;SDS_P2;PMS_P1;PMS_P2;Temp;Humidity;BMP_temperature;BMP_pressure;BME280_temperature;BME280_humidity;BME280_pressure;Samples;Min_cycle;Max_cycle;Signal;HPM_P1;HPM_P2
2023/07/04 00:01:24;;;;;;;2.20;1.05;;;;;;;-147.53;100.00;57128.34;10468602;28;20060;-83
2023/07/04 00:06:29;;;;;;;1.63;0.70;;;;;;;-147.53;100.00;57128.34;10458430;28;20078;-83
2023/07/04 00:11:41;;;;;;;4.72;1.05;;;;;;;-147.53;100.00;57128.34;10490564;28;20079;-84
2023/07/04 00:16:43;;;;;;;3.22;0.82;;;;;;;-147.53;100.00;57128.34;10493379;28;20617;-83
2023/07/04 00:21:45;;;;;;;0.50;0.40;;;;;;;-147.53;100.00;57128.34;10495861;28;20120;-83
2023/07/04 00:26:48;;;;;;;1.23;0.70;;;;;;;-147.53;100.00;57128.34;10470256;28;20112;-83
2023/07/04 00:31:54;;;;;;;1.33;0.75;;;;;;;-147.53;100.00;57128.34;10491920;28;20052;-84
2023/07/04 00:36:59;;;;;;;1.70;0.73;;;;;;;-147.53;100.00;57128.34;10493085;28;20090;-84
2023/07/04 00:42:04;;;;;;;3.05;0.70;;;;;;;-147.53;100.00;57128.34;10475881;28;20078;-83
2023/07/04 00:47:15;;;;;;;1.33;0.80;;;;;;;-147.53;100.00;57128.34;10474477;28;20785;-83
2023/07/04 00:52:25;;;;;;;5.38;1.45;;;;;;;-147.53;100.00;57128.34;10478152;28;20074;-84
2023/07/04 00:57:32;;;;;;;2.45;1.08;;;;;;;-147.53;100.00;57128.34;10486154;28;20521;-84
2023/07/04 01:02:39;;;;;;;2.17;0.90;;;;;;;-147.53;100.00;57128.34;10474165;28;20071;-84
2023/07/04 01:07:54;;;;;;;5.18;1.50;;;;;;;-147.53;100.00;57128.34;10473840;28;20040;-84
2023/07/04 01:12:56;;;;;;;2.10;1.13;;;;;;;-147.53;100.00;57128.34;10473066;28;20120;-83
2023/07/04 01:18:00;;;;;;;3.17;1.30;;;;;;;-147.53;100.00;57128.34;10490503;28;20045;-84
2023/07/04 01:23:47;;;;;;;5.55;1.35;;;;;;;-147.53;100.00;57128.34;10496052;28;20157;-84
2023/07/04 01:28:54;;;;;;;3.85;1.40;;;;;;;-147.53;100.00;57128.34;10441863;28;20564;-84
2023/07/04 01:33:57;;;;;;;6.18;1.17;;;;;;;-147.53;100.00;57128.34;10474481;28;20506;-84
2023/07/04 01:38:59;;;;;;;2.10;1.15;;;;;;;-147.53;100.00;57128.34;10492672;28;20587;-84
2023/07/04 01:44:07;;;;;;;3.92;1.55;;;;;;;-147.53;100.00;57128.34;10485698;28;20049;-84
2023/07/04 01:49:09;;;;;;;3.10;1.25;;;;;;;-147.53;100.00;57128.34;10488223;28;20102;-84
2023/07/04 01:54:17;;;;;;;2.80;1.30;;;;;;;-147.53;100.00;57128.34;10480881;28;20048;-84
2023/07/04 01:59:20;;;;;;;3.95;1.60;;;;;;;-147.53;100.00;57128.34;10475248;28;20051;-84
2023/07/04 02:04:21;;;;;;;2.97;1.25;;;;;;;-147.53;100.00;57128.34;10463924;28;20078;-83
2023/07/04 02:09:24;;;;;;;7.75;1.52;;;;;;;-147.53;100.00;57128.34;10472618;28;20044;-84
2023/07/04 02:14:25;;;;;;;6.30;1.42;;;;;;;-147.53;100.00;57128.34;10473229;28;20418;-84
2023/07/04 02:19:27;;;;;;;2.38;1.30;;;;;;;-147.53;100.00;57128.34;10493471;28;20059;-84
2023/07/04 02:24:29;;;;;;;5.82;1.45;;;;;;;-147.53;100.00;57128.34;10477880;28;20044;-84
2023/07/04 02:29:30;;;;;;;4.28;1.55;;;;;;;-147.53;100.00;57128.34;10492207;28;20044;-85
2023/07/04 02:34:32;;;;;;;3.65;2.13;;;;;;;-147.53;100.00;57128.34;10474373;28;20137;-85
2023/07/04 02:39:34;;;;;;;6.18;1.42;;;;;;;-147.53;100.00;57128.34;10492166;28;20036;-85
2023/07/04 02:44:36;;;;;;;4.60;1.70;;;;;;;-147.53;100.00;57128.34;10474086;28;20490;-84
2023/07/04 02:49:39;;;;;;;4.20;1.55;;;;;;;-147.53;100.00;57128.34;10474552;28;20032;-85
2023/07/04 02:54:44;;;;;;;6.55;1.42;;;;;;;-147.53;100.00;57128.34;10476251;28;20040;-84
2023/07/04 02:59:46;;;;;;;3.25;1.55;;;;;;;-147.53;100.00;57128.34;10470056;28;20189;-84
2023/07/04 03:04:51;;;;;;;10.20;2.30;;;;;;;-147.53;100.00;57128.34;10478068;28;20051;-85
2023/07/04 03:10:05;;;;;;;4.07;1.85;;;;;;;-147.53;100.00;57128.34;10482943;28;20402;-84
2023/07/04 03:15:15;;;;;;;4.72;1.92;;;;;;;-147.53;100.00;57128.34;10454355;28;20044;-85
2023/07/04 03:20:36;;;;;;;7.55;2.47;;;;;;;-147.53;100.00;57128.34;10478384;28;20083;-83
2023/07/04 03:25:50;;;;;;;6.68;1.92;;;;;;;-147.53;100.00;57128.34;10455355;28;20131;-85
2023/07/04 03:31:05;;;;;;;5.55;2.28;;;;;;;-147.53;100.00;57128.34;10464445;28;20205;-85
2023/07/04 03:36:21;;;;;;;3.75;1.83;;;;;;;-147.53;100.00;57128.34;10471704;28;20098;-85
2023/07/04 03:41:36;;;;;;;4.60;1.90;;;;;;;-147.53;100.00;57128.34;10461806;28;20580;-84
2023/07/04 03:46:46;;;;;;;6.13;1.98;;;;;;;-147.53;100.00;57128.34;10482694;28;20646;-84
2023/07/04 03:51:49;;;;;;;3.97;1.83;;;;;;;-147.53;100.00;57128.34;10468923;28;20040;-82
2023/07/04 03:56:56;;;;;;;7.07;1.83;;;;;;;-147.53;100.00;57128.34;10480828;28;20064;-83
2023/07/04 04:02:28;;;;;;;11.82;2.40;;;;;;;-147.53;100.00;57128.34;10468168;28;20390;-83
2023/07/04 04:07:37;;;;;;;4.90;1.92;;;;;;;-147.53;100.00;57128.34;10467094;28;20118;-83
2023/07/04 04:12:49;;;;;;;5.40;1.48;;;;;;;-147.53;100.00;57128.34;10476250;28;20056;-83
2023/07/04 04:17:59;;;;;;;4.68;1.73;;;;;;;-147.53;100.00;57128.34;10479724;28;20480;-83
2023/07/04 04:23:05;;;;;;;3.28;1.63;;;;;;;-147.53;100.00;57128.34;10486613;28;20040;-83
2023/07/04 04:28:10;;;;;;;6.75;2.05;;;;;;;-147.53;100.00;57128.34;10480916;28;20044;-83
2023/07/04 04:33:16;;;;;;;7.50;2.10;;;;;;;-147.53;100.00;57128.34;10471367;28;20120;-82
2023/07/04 04:38:25;;;;;;;7.28;1.90;;;;;;;-147.53;100.00;57128.34;10483470;28;20036;-83
2023/07/04 04:43:33;;;;;;;7.00;1.70;;;;;;;-147.53;100.00;57128.34;10499799;28;20036;-83
2023/07/04 04:48:47;;;;;;;3.83;1.90;;;;;;;-147.53;100.00;57128.34;10455994;28;20040;-83
2023/07/04 04:54:02;;;;;;;5.57;2.03;;;;;;;-147.53;100.00;57128.34;10480643;28;20036;-83
2023/07/04 04:59:14;;;;;;;4.68;2.00;;;;;;;-147.53;100.00;57128.34;10477324;28;20040;-83
2023/07/04 05:04:28;;;;;;;9.30;2.08;;;;;;;-147.53;100.00;57128.34;10499455;28;20048;-82
2023/07/04 05:09:31;;;;;;;4.78;1.67;;;;;;;-147.53;100.00;57128.34;10482083;28;20070;-83
2023/07/04 05:14:37;;;;;;;6.78;2.17;;;;;;;-147.53;100.00;57128.34;10477528;28;20685;-85
2023/07/04 05:19:43;;;;;;;8.68;2.72;;;;;;;-147.53;100.00;57128.34;10490049;28;20044;-85
2023/07/04 05:25:10;;;;;;;6.32;2.10;;;;;;;-147.53;100.00;57128.34;10479785;28;20119;-85
2023/07/04 05:30:16;;;;;;;7.57;2.20;;;;;;;-147.53;100.00;57128.34;10478281;28;20494;-82
2023/07/04 05:35:27;;;;;;;6.80;2.22;;;;;;;-147.53;100.00;57128.34;10487895;28;20131;-83
2023/07/04 05:40:40;;;;;;;7.72;2.58;;;;;;;-147.53;100.00;57128.34;10507100;28;20067;-83
2023/07/04 05:45:53;;;;;;;8.32;2.38;;;;;;;-147.53;100.00;57128.34;10490796;28;20179;-84
2023/07/04 05:51:11;;;;;;;6.05;2.40;;;;;;;-147.53;100.00;57128.34;10525770;28;20076;-84
2023/07/04 05:56:22;;;;;;;8.45;2.60;;;;;;;-147.53;100.00;57128.34;10506007;28;20051;-84
2023/07/04 06:01:39;;;;;;;6.65;2.38;;;;;;;-147.53;100.00;57128.34;10491514;28;20086;-81
2023/07/04 06:06:55;;;;;;;7.32;2.35;;;;;;;-147.53;100.00;57128.34;10499524;28;20470;-81
2023/07/04 06:11:58;;;;;;;8.85;2.58;;;;;;;-147.53;100.00;57128.34;10470347;28;20094;-81
2023/07/04 06:17:06;;;;;;;8.32;2.15;;;;;;;-147.53;100.00;57128.34;10483437;28;20040;-82
2023/07/04 06:22:19;;;;;;;4.18;2.40;;;;;;;-147.53;100.00;57128.34;10497803;28;20517;-82
2023/07/04 06:27:24;;;;;;;8.45;2.17;;;;;;;-147.53;100.00;57128.34;10456530;28;20052;-83
2023/07/04 06:32:29;;;;;;;5.22;2.00;;;;;;;-147.53;100.00;57128.34;10483799;28;20088;-83
2023/07/04 06:37:44;;;;;;;4.72;1.80;;;;;;;-147.53;100.00;57128.34;10500729;28;20083;-84
2023/07/04 06:43:05;;;;;;;8.68;2.05;;;;;;;-147.53;100.00;57128.34;10472249;28;20048;-85
2023/07/04 06:48:17;;;;;;;4.93;1.90;;;;;;;-147.53;100.00;57128.34;10479974;28;20044;-84
2023/07/04 06:53:19;;;;;;;3.90;1.35;;;;;;;-147.53;100.00;57128.34;10488888;28;20048;-84
2023/07/04 06:58:33;;;;;;;6.13;2.08;;;;;;;-147.53;100.00;57128.34;10505434;28;20621;-83
2023/07/04 07:03:43;;;;;;;5.20;1.55;;;;;;;-147.53;100.00;57128.34;10497797;28;20044;-83
2023/07/04 07:08:45;;;;;;;2.43;1.27;;;;;;;-147.53;100.00;57128.34;10469163;28;20130;-82
2023/07/04 07:13:50;;;;;;;5.03;1.40;;;;;;;-147.53;100.00;57128.34;10508620;28;20071;-82
2023/07/04 07:18:59;;;;;;;4.50;1.10;;;;;;;-147.53;100.00;57128.34;10491524;28;20112;-83
2023/07/04 07:24:14;;;;;;;4.95;1.65;;;;;;;-147.53;100.00;57128.34;10490745;28;20055;-84
2023/07/04 07:29:18;;;;;;;7.03;1.35;;;;;;;-147.53;100.00;57128.34;10490296;28;20136;-84
2023/07/04 07:40:42;;;;;;;3.33;0.93;;;;;;;-147.53;100.00;57128.34;10399176;28;20506;-84
2023/07/04 07:46:08;;;;;;;3.30;1.05;;;;;;;-147.53;100.00;57128.34;10459634;28;20076;-83
2023/07/04 07:51:19;;;;;;;3.95;1.20;;;;;;;-147.53;100.00;57128.34;10480595;28;20040;-82
2023/07/04 07:56:50;;;;;;;;;;;;;;;;;;;;;
2023/07/04 08:02:18;;;;;;;1.42;0.68;;;;;;;-147.53;100.00;57128.34;10474738;28;20052;-86
2023/07/04 08:07:44;;;;;;;;;;;;;;;-147.53;100.00;57128.34;10433550;28;20190;-85
2023/07/04 08:25:52;;;;;;;3.90;0.80;;;;;;;-147.53;100.00;57128.34;10542763;22;20048;-82
2023/07/04 08:31:23;;;;;;;1.60;0.60;;;;;;;-147.53;100.00;57128.34;10452059;28;20095;-80
2023/07/04 08:36:34;;;;;;;3.28;0.60;;;;;;;-147.53;100.00;57128.34;10440366;28;20420;-84
2023/07/04 08:48:04;;;;;;;2.97;0.57;;;;;;;-147.53;100.00;57128.34;10419677;28;20790;-80
2023/07/04 08:59:28;;;;;;;;;;;;;;;;;;;;;
2023/07/04 09:04:46;;;;;;;3.50;1.17;;;;;;;-147.53;100.00;57128.34;10196216;28;20414;-82
2023/07/04 09:09:59;;;;;;;1.40;0.70;;;;;;;-147.53;100.00;57128.34;10216831;29;20052;-82
2023/07/04 09:15:18;;;;;;;2.15;0.60;;;;;;;-147.53;100.00;57128.34;10214964;28;20119;-82
2023/07/04 09:20:20;;;;;;;4.60;0.82;;;;;;;-147.53;100.00;57128.34;10221313;28;20044;-82
2023/07/04 09:25:22;;;;;;;6.18;1.02;;;;;;;-147.53;100.00;57128.34;10234705;28;20509;-81
2023/07/04 09:30:25;;;;;;;0.50;0.50;;;;;;;-147.53;100.00;57128.34;10227501;28;20042;-80
2023/07/04 09:35:31;;;;;;;4.05;0.70;;;;;;;-147.53;100.00;57128.34;10190927;29;20111;-80
2023/07/04 09:40:54;;;;;;;4.95;0.82;;;;;;;-147.53;100.00;57128.34;10197812;28;20067;-80
2023/07/04 09:46:21;;;;;;;1.55;0.75;;;;;;;-147.53;100.00;57128.34;10207796;29;20501;-80
2023/07/04 09:51:27;;;;;;;2.38;0.82;;;;;;;-147.53;100.00;57128.34;10220255;28;20105;-80
2023/07/04 09:56:29;;;;;;;5.68;0.75;;;;;;;-147.53;100.00;57128.34;10207184;29;20113;-79
2023/07/04 10:02:24;;;;;;;4.18;1.13;;;;;;;-147.53;100.00;57128.34;10196292;28;20044;-82
2023/07/04 10:07:29;;;;;;;2.63;0.93;;;;;;;-147.53;100.00;57128.34;10214882;29;21408;-80
2023/07/04 10:12:49;;;;;;;3.55;0.80;;;;;;;-147.53;100.00;57128.34;10215109;28;20697;-80
2023/07/04 10:18:31;;;;;;;4.00;1.00;;;;;;;-147.53;100.00;57128.34;10191845;29;20054;-80
2023/07/04 10:23:37;;;;;;;4.15;1.00;;;;;;;-147.53;100.00;57128.34;10182017;29;20064;-80
2023/07/04 10:28:41;;;;;;;1.45;0.70;;;;;;;-147.53;100.00;57128.34;10206072;29;20048;-80
2023/07/04 10:34:05;;;;;;;2.85;0.57;;;;;;;-147.53;100.00;57128.34;10222696;28;20111;-80
2023/07/04 10:39:12;;;;;;;4.03;1.10;;;;;;;-147.53;100.00;57128.34;10235519;28;20052;-79
2023/07/04 10:44:20;;;;;;;4.03;0.95;;;;;;;-147.53;100.00;57128.34;10236150;28;20075;-80
2023/07/04 10:49:26;;;;;;;4.35;1.30;;;;;;;-147.53;100.00;57128.34;10234853;28;20055;-80
2023/07/04 10:54:27;;;;;;;4.53;1.15;;;;;;;-147.53;100.00;57128.34;10223864;28;20059;-81
2023/07/04 10:59:33;;;;;;;8.20;1.00;;;;;;;-147.53;100.00;57128.34;10215450;29;20071;-81
2023/07/04 11:04:37;;;;;;;2.42;0.68;;;;;;;-147.53;100.00;57128.34;10205437;28;20221;-81
2023/07/04 11:09:40;;;;;;;2.78;0.88;;;;;;;-147.53;100.00;57128.34;10231465;29;20063;-80
2023/07/04 11:14:45;;;;;;;4.15;1.10;;;;;;;-147.53;100.00;57128.34;10229253;28;20058;-80
2023/07/04 11:20:11;;;;;;;8.27;1.15;;;;;;;-147.53;100.00;57128.34;10231793;28;20046;-81
2023/07/04 11:25:34;;;;;;;3.58;0.98;;;;;;;-147.53;100.00;57128.34;10241464;28;20062;-81
2023/07/04 11:30:40;;;;;;;5.93;1.08;;;;;;;-147.53;100.00;57128.34;10243011;28;20054;-80
2023/07/04 11:35:44;;;;;;;3.35;0.90;;;;;;;-147.53;100.00;57128.34;10243179;29;20112;-80
2023/07/04 11:40:50;;;;;;;4.93;1.02;;;;;;;-147.53;100.00;57128.34;10220664;28;20955;-80
2023/07/04 11:45:55;;;;;;;4.47;1.13;;;;;;;-147.53;100.00;57128.34;10230328;29;20048;-80
2023/07/04 11:51:06;;;;;;;6.28;1.13;;;;;;;-147.53;100.00;57128.34;10235908;28;20080;-81
2023/07/04 11:56:35;;;;;;;5.43;1.33;;;;;;;-147.53;100.00;57128.34;10234199;28;20059;-81
2023/07/04 12:01:52;;;;;;;4.43;1.15;;;;;;;-147.53;100.00;57128.34;10223249;28;20158;-82
2023/07/04 12:07:10;;;;;;;6.13;1.40;;;;;;;-147.53;100.00;57128.34;10232092;29;20501;-81
2023/07/04 12:12:24;;;;;;;7.57;1.25;;;;;;;-147.53;100.00;57128.34;10228959;28;20047;-80
2023/07/04 12:17:26;;;;;;;4.82;1.02;;;;;;;-147.53;100.00;57128.34;10215066;28;20072;-83
2023/07/04 12:22:27;;;;;;;1.63;0.95;;;;;;;-147.53;100.00;57128.34;10235816;28;20429;-80
2023/07/04 12:27:29;;;;;;;5.28;0.75;;;;;;;-147.53;100.00;57128.34;10235150;28;20083;-79
2023/07/04 12:32:36;;;;;;;6.00;1.20;;;;;;;-147.53;100.00;57128.34;10234330;28;20044;-79
2023/07/04 12:37:44;;;;;;;2.72;0.75;;;;;;;-147.53;100.00;57128.34;10226355;28;20072;-83
2023/07/04 12:42:48;;;;;;;1.75;0.68;;;;;;;-147.53;100.00;57128.34;10206899;28;20059;-82
2023/07/04 12:47:52;;;;;;;3.25;0.70;;;;;;;-147.53;100.00;57128.34;10218524;29;20050;-82
2023/07/04 12:52:58;;;;;;;6.53;1.00;;;;;;;-147.53;100.00;57128.34;10218006;28;20048;-82
2023/07/04 12:58:03;;;;;;;3.33;0.60;;;;;;;-147.53;100.00;57128.34;10210160;28;20051;-80
2023/07/04 13:03:11;;;;;;;3.72;0.60;;;;;;;-147.53;100.00;57128.34;10224565;28;20084;-81
2023/07/04 13:08:17;;;;;;;3.08;1.10;;;;;;;-147.53;100.00;57128.34;10206951;29;20133;-80
2023/07/04 13:13:42;;;;;;;1.02;0.65;;;;;;;-147.53;100.00;57128.34;10208436;29;20051;-81
2023/07/04 13:18:46;;;;;;;2.50;0.80;;;;;;;-147.53;100.00;57128.34;10221381;28;20099;-81
2023/07/04 13:23:48;;;;;;;5.35;1.30;;;;;;;-147.53;100.00;57128.34;10212659;29;20051;-81
2023/07/04 13:29:16;;;;;;;4.25;1.08;;;;;;;-147.53;100.00;57128.34;10218746;29;20308;-81
2023/07/04 13:34:23;;;;;;;7.32;1.30;;;;;;;-147.53;100.00;57128.34;10226330;28;20459;-81
2023/07/04 13:39:30;;;;;;;6.40;1.20;;;;;;;-147.53;100.00;57128.34;10252610;28;20110;-81
2023/07/04 13:44:39;;;;;;;5.93;1.23;;;;;;;-147.53;100.00;57128.34;10245998;28;20058;-82
2023/07/04 13:49:43;;;;;;;5.30;1.80;;;;;;;-147.53;100.00;57128.34;10230146;29;20080;-81
2023/07/04 13:54:45;;;;;;;3.80;1.05;;;;;;;-147.53;100.00;57128.34;10213942;29;20047;-81
2023/07/04 13:59:48;;;;;;;1.80;0.95;;;;;;;-147.53;100.00;57128.34;10231528;28;20180;-82
2023/07/04 14:04:51;;;;;;;7.50;1.67;;;;;;;-147.53;100.00;57128.34;10208260;28;20047;-82
2023/07/04 14:09:55;;;;;;;4.13;1.35;;;;;;;-147.53;100.00;57128.34;10226446;29;20048;-81
2023/07/04 14:14:58;;;;;;;5.75;1.08;;;;;;;-147.53;100.00;57128.34;10214395;29;20058;-82
2023/07/04 14:20:04;;;;;;;3.78;1.13;;;;;;;-147.53;100.00;57128.34;10237166;29;20047;-81
2023/07/04 14:25:07;;;;;;;8.50;1.27;;;;;;;-147.53;100.00;57128.34;10211469;29;20181;-82
2023/07/04 14:30:09;;;;;;;4.93;1.08;;;;;;;-147.53;100.00;57128.34;10231333;28;20044;-81
2023/07/04 14:35:11;;;;;;;2.17;0.73;;;;;;;-147.53;100.00;57128.34;10220986;29;20065;-82
2023/07/04 14:40:12;;;;;;;4.22;0.98;;;;;;;-147.53;100.00;57128.34;10236727;28;20530;-84
2023/07/04 14:45:17;;;;;;;6.88;0.98;;;;;;;-147.53;100.00;57128.34;10229959;29;20094;-84
2023/07/04 14:50:18;;;;;;;3.17;1.00;;;;;;;-147.53;100.00;57128.34;10222678;28;20051;-79
2023/07/04 14:55:21;;;;;;;11.00;1.08;;;;;;;-147.53;100.00;57128.34;10238819;28;20075;-82
2023/07/04 15:00:23;;;;;;;4.03;0.80;;;;;;;-147.53;100.00;57128.34;10221329;28;20506;-84
2023/07/04 15:05:24;;;;;;;2.03;0.80;;;;;;;-147.53;100.00;57128.34;10216316;28;20044;-84
2023/07/04 15:10:26;;;;;;;2.65;0.95;;;;;;;-147.53;100.00;57128.34;10225363;28;20052;-80
2023/07/04 15:15:28;;;;;;;2.53;0.95;;;;;;;-147.53;100.00;57128.34;10214964;29;20051;-84
2023/07/04 15:20:29;;;;;;;7.88;1.25;;;;;;;-147.53;100.00;57128.34;10206887;28;20055;-86
2023/07/04 15:25:31;;;;;;;4.68;1.15;;;;;;;-147.53;100.00;57128.34;10197798;29;20051;-87
2023/07/04 15:30:32;;;;;;;4.88;1.23;;;;;;;-147.53;100.00;57128.34;10199838;28;20047;-83
2023/07/04 15:35:34;;;;;;;3.40;1.13;;;;;;;-147.53;100.00;57128.34;10209526;28;20059;-83
2023/07/04 15:40:36;;;;;;;5.03;1.25;;;;;;;-147.53;100.00;57128.34;10209619;28;20048;-85
2023/07/04 15:45:37;;;;;;;3.78;1.08;;;;;;;-147.53;100.00;57128.34;10222206;28;20051;-82
2023/07/04 15:50:39;;;;;;;4.50;1.30;;;;;;;-147.53;100.00;57128.34;10249477;28;20085;-82
2023/07/04 15:55:41;;;;;;;7.95;1.08;;;;;;;-147.53;100.00;57128.34;10244583;28;20055;-83
2023/07/04 16:00:45;;;;;;;2.35;0.73;;;;;;;-147.53;100.00;57128.34;10250738;28;20073;-83
2023/07/04 16:05:47;;;;;;;8.35;1.40;;;;;;;-147.53;100.00;57128.34;10249360;28;20079;-84
2023/07/04 16:10:54;;;;;;;6.85;1.77;;;;;;;-147.53;100.00;57128.34;10228889;28;20047;-83
2023/07/04 16:15:56;;;;;;;3.70;0.80;;;;;;;-147.53;100.00;57128.34;10252684;28;20077;-83
2023/07/04 16:20:58;;;;;;;4.25;1.00;;;;;;;-147.53;100.00;57128.34;10230244;28;20421;-82
2023/07/04 16:26:00;;;;;;;7.15;1.30;;;;;;;-147.53;100.00;57128.34;10236265;28;20047;-81
2023/07/04 16:31:05;;;;;;;1.92;0.85;;;;;;;-147.53;100.00;57128.34;10260563;28;20051;-82
2023/07/04 16:36:08;;;;;;;4.72;1.10;;;;;;;-147.53;100.00;57128.34;10236690;28;20657;-81
2023/07/04 16:41:11;;;;;;;4.05;1.00;;;;;;;-147.53;100.00;57128.34;10254038;28;20040;-82
2023/07/04 16:46:13;;;;;;;2.00;0.85;;;;;;;-147.53;100.00;57128.34;10238399;29;20114;-83
2023/07/04 16:51:15;;;;;;;7.53;1.17;;;;;;;-147.53;100.00;57128.34;10213799;28;20043;-82
2023/07/04 16:56:20;;;;;;;9.32;1.30;;;;;;;-147.53;100.00;57128.34;10230448;28;20255;-84
2023/07/04 17:01:21;;;;;;;1.90;1.02;;;;;;;-147.53;100.00;57128.34;10222349;28;20051;-83
2023/07/04 17:06:23;;;;;;;3.70;0.85;;;;;;;-147.53;100.00;57128.34;10246147;28;20057;-81
2023/07/04 17:11:25;;;;;;;8.55;1.20;;;;;;;-147.53;100.00;57128.34;10245369;28;20055;-82
2023/07/04 17:16:29;;;;;;;8.13;1.50;;;;;;;-147.53;100.00;57128.34;10231494;28;20047;-83
2023/07/04 17:21:34;;;;;;;3.63;2.05;;;;;;;-147.53;100.00;57128.34;10241549;28;20057;-83
2023/07/04 17:26:36;;;;;;;9.25;1.98;;;;;;;-147.53;100.00;57128.34;10212417;29;20063;-85
2023/07/04 17:31:38;;;;;;;5.38;1.38;;;;;;;-147.53;100.00;57128.34;10214035;29;20047;-82
2023/07/04 17:36:40;;;;;;;5.35;0.90;;;;;;;-147.53;100.00;57128.34;10225616;28;20043;-82
2023/07/04 17:41:41;;;;;;;4.45;1.00;;;;;;;-147.53;100.00;57128.34;10218365;28;20058;-83
2023/07/04 17:46:43;;;;;;;7.78;1.75;;;;;;;-147.53;100.00;57128.34;10203792;28;20074;-82
2023/07/04 17:51:45;;;;;;;6.38;1.00;;;;;;;-147.53;100.00;57128.34;10235513;28;20095;-81
2023/07/04 17:56:48;;;;;;;2.25;0.98;;;;;;;-147.53;100.00;57128.34;10229485;28;20465;-81
2023/07/04 18:01:50;;;;;;;8.15;0.90;;;;;;;-147.53;100.00;57128.34;10222792;28;20051;-83
2023/07/04 18:06:53;;;;;;;4.07;1.10;;;;;;;-147.53;100.00;57128.34;10222960;28;20416;-83
2023/07/04 18:11:55;;;;;;;2.63;0.88;;;;;;;-147.53;100.00;57128.34;10225538;28;20425;-81
2023/07/04 18:16:57;;;;;;;4.60;0.95;;;;;;;-147.53;100.00;57128.34;10219980;28;20047;-83
2023/07/04 18:21:58;;;;;;;5.30;1.23;;;;;;;-147.53;100.00;57128.34;10206230;28;20051;-83
2023/07/04 18:27:01;;;;;;;3.83;1.23;;;;;;;-147.53;100.00;57128.34;10226490;28;20047;-84
2023/07/04 18:32:02;;;;;;;5.28;0.98;;;;;;;-147.53;100.00;57128.34;10210189;28;20052;-84
2023/07/04 18:42:43;;;;;;;6.13;1.13;;;;;;;;;;10326334;27;20632;-83
2023/07/04 18:47:47;;;;;;;6.95;1.48;;;;;;;;;;10374365;28;20089;-84
2023/07/04 18:56:34;;;;;;;3.83;1.30;;;;;;;;;;10370809;27;20624;-81
2023/07/04 19:01:36;;;;;;;6.20;1.45;;;;;;;;;;10259014;28;20094;-83
2023/07/04 19:06:39;;;;;;;4.00;1.35;;;;;;;;;;10263101;28;172296;-85
